sensor_id;sensor_type;location;lat;lon;timestamp;temperature;humidity
71117;SHT31;58775;46.992;9.518;2023-11-19T00:00:41;5.65;96.87
71117;SHT31;58775;46.992;9.518;2023-11-19T00:02:43;5.74;95.05
71117;SHT31;58775;46.992;9.518;2023-11-19T00:04:43;5.67;95.41
71117;SHT31;58775;46.992;9.518;2023-11-19T00:06:44;5.51;95.95
71117;SHT31;58775;46.992;9.518;2023-11-19T00:08:45;5.44;96.30
71117;SHT31;58775;46.992;9.518;2023-11-19T00:10:46;5.42;96.60
71117;SHT31;58775;46.992;9.518;2023-11-19T00:12:48;5.53;97.13
71117;SHT31;58775;46.992;9.518;2023-11-19T00:14:49;5.48;97.62
71117;SHT31;58775;46.992;9.518;2023-11-19T00:16:51;5.63;95.26
71117;SHT31;58775;46.992;9.518;2023-11-19T00:18:51;5.61;96.71
71117;SHT31;58775;46.992;9.518;2023-11-19T00:20:52;5.58;97.13
71117;SHT31;58775;46.992;9.518;2023-11-19T00:22:53;5.67;95.18
71117;SHT31;58775;46.992;9.518;2023-11-19T00:24:54;5.64;95.04
71117;SHT31;58775;46.992;9.518;2023-11-19T00:26:54;5.60;94.86
71117;SHT31;58775;46.992;9.518;2023-11-19T00:28:55;5.55;95.85
71117;SHT31;58775;46.992;9.518;2023-11-19T00:30:56;5.58;96.25
71117;SHT31;58775;46.992;9.518;2023-11-19T00:32:57;5.57;96.67
71117;SHT31;58775;46.992;9.518;2023-11-19T00:34:58;5.65;96.65
71117;SHT31;58775;46.992;9.518;2023-11-19T00:36:59;5.61;95.88
71117;SHT31;58775;46.992;9.518;2023-11-19T00:38:59;5.61;95.25
71117;SHT31;58775;46.992;9.518;2023-11-19T00:41:00;5.50;95.30
71117;SHT31;58775;46.992;9.518;2023-11-19T00:43:02;5.58;94.73
71117;SHT31;58775;46.992;9.518;2023-11-19T00:45:04;5.53;95.70
71117;SHT31;58775;46.992;9.518;2023-11-19T00:47:08;5.47;94.87
71117;SHT31;58775;46.992;9.518;2023-11-19T00:49:09;5.42;95.37
71117;SHT31;58775;46.992;9.518;2023-11-19T00:51:12;5.44;95.54
71117;SHT31;58775;46.992;9.518;2023-11-19T00:53:13;5.48;95.28
71117;SHT31;58775;46.992;9.518;2023-11-19T00:55:14;5.51;95.15
71117;SHT31;58775;46.992;9.518;2023-11-19T00:57:14;5.48;95.37
71117;SHT31;58775;46.992;9.518;2023-11-19T00:59:15;5.55;95.66
71117;SHT31;58775;46.992;9.518;2023-11-19T01:01:16;5.67;94.97
71117;SHT31;58775;46.992;9.518;2023-11-19T01:03:17;5.55;96.22
71117;SHT31;58775;46.992;9.518;2023-11-19T01:05:19;5.57;96.89
71117;SHT31;58775;46.992;9.518;2023-11-19T01:07:22;5.71;96.53
71117;SHT31;58775;46.992;9.518;2023-11-19T01:09:25;5.67;95.08
71117;SHT31;58775;46.992;9.518;2023-11-19T01:11:27;5.78;95.32
71117;SHT31;58775;46.992;9.518;2023-11-19T01:13:28;5.67;96.24
71117;SHT31;58775;46.992;9.518;2023-11-19T01:15:30;5.65;96.46
71117;SHT31;58775;46.992;9.518;2023-11-19T01:17:30;5.78;96.41
71117;SHT31;58775;46.992;9.518;2023-11-19T01:19:32;5.83;96.09
71117;SHT31;58775;46.992;9.518;2023-11-19T01:21:33;5.73;97.10
71117;SHT31;58775;46.992;9.518;2023-11-19T01:23:34;5.79;97.73
71117;SHT31;58775;46.992;9.518;2023-11-19T01:25:35;5.90;96.43
71117;SHT31;58775;46.992;9.518;2023-11-19T01:27:36;5.85;95.92
71117;SHT31;58775;46.992;9.518;2023-11-19T01:29:36;5.98;95.29
71117;SHT31;58775;46.992;9.518;2023-11-19T01:31:38;5.98;95.37
71117;SHT31;58775;46.992;9.518;2023-11-19T01:33:39;5.88;96.38
71117;SHT31;58775;46.992;9.518;2023-11-19T01:35:41;5.71;97.00
71117;SHT31;58775;46.992;9.518;2023-11-19T01:37:42;5.57;97.16
71117;SHT31;58775;46.992;9.518;2023-11-19T01:39:44;5.65;97.23
71117;SHT31;58775;46.992;9.518;2023-11-19T01:41:45;5.67;97.37
71117;SHT31;58775;46.992;9.518;2023-11-19T01:43:46;5.67;97.47
71117;SHT31;58775;46.992;9.518;2023-11-19T01:45:47;5.61;94.91
71117;SHT31;58775;46.992;9.518;2023-11-19T01:47:51;5.60;95.20
71117;SHT31;58775;46.992;9.518;2023-11-19T01:49:52;5.65;94.18
71117;SHT31;58775;46.992;9.518;2023-11-19T01:51:53;5.71;94.28
71117;SHT31;58775;46.992;9.518;2023-11-19T01:53:54;5.79;93.60
71117;SHT31;58775;46.992;9.518;2023-11-19T01:55:57;5.94;92.87
71117;SHT31;58775;46.992;9.518;2023-11-19T01:58:00;5.78;93.53
71117;SHT31;58775;46.992;9.518;2023-11-19T02:00:02;5.81;94.05
71117;SHT31;58775;46.992;9.518;2023-11-19T02:02:14;5.91;93.46
71117;SHT31;58775;46.992;9.518;2023-11-19T02:04:14;5.73;94.42
71117;SHT31;58775;46.992;9.518;2023-11-19T02:06:16;5.67;94.70
71117;SHT31;58775;46.992;9.518;2023-11-19T02:08:17;5.68;94.77
71117;SHT31;58775;46.992;9.518;2023-11-19T02:10:18;5.64;95.08
71117;SHT31;58775;46.992;9.518;2023-11-19T02:12:19;5.61;94.94
71117;SHT31;58775;46.992;9.518;2023-11-19T02:14:24;5.51;95.48
71117;SHT31;58775;46.992;9.518;2023-11-19T02:16:26;5.24;97.05
71117;SHT31;58775;46.992;9.518;2023-11-19T02:18:29;5.19;98.19
71117;SHT31;58775;46.992;9.518;2023-11-19T02:20:30;5.20;97.48
71117;SHT31;58775;46.992;9.518;2023-11-19T02:22:31;5.11;97.95
71117;SHT31;58775;46.992;9.518;2023-11-19T02:24:32;5.13;98.35
71117;SHT31;58775;46.992;9.518;2023-11-19T02:28:48;5.24;97.16
71117;SHT31;58775;46.992;9.518;2023-11-19T02:30:48;5.26;97.11
71117;SHT31;58775;46.992;9.518;2023-11-19T02:32:49;5.30;97.04
71117;SHT31;58775;46.992;9.518;2023-11-19T02:34:50;5.29;96.45
71117;SHT31;58775;46.992;9.518;2023-11-19T02:36:51;5.20;96.92
71117;SHT31;58775;46.992;9.518;2023-11-19T02:38:53;5.22;97.45
71117;SHT31;58775;46.992;9.518;2023-11-19T02:40:55;5.26;97.47
71117;SHT31;58775;46.992;9.518;2023-11-19T02:42:56;5.23;96.90
71117;SHT31;58775;46.992;9.518;2023-11-19T02:44:58;5.20;97.73
71117;SHT31;58775;46.992;9.518;2023-11-19T02:46:59;5.29;97.57
71117;SHT31;58775;46.992;9.518;2023-11-19T02:49:01;5.27;96.86
71117;SHT31;58775;46.992;9.518;2023-11-19T02:51:03;5.13;98.52
71117;SHT31;58775;46.992;9.518;2023-11-19T02:53:09;5.20;98.44
71117;SHT31;58775;46.992;9.518;2023-11-19T02:55:12;5.23;98.10
71117;SHT31;58775;46.992;9.518;2023-11-19T02:57:15;5.19;97.77
71117;SHT31;58775;46.992;9.518;2023-11-19T02:59:19;5.26;97.85
71117;SHT31;58775;46.992;9.518;2023-11-19T03:01:27;5.26;97.13
71117;SHT31;58775;46.992;9.518;2023-11-19T03:03:31;5.24;97.28
71117;SHT31;58775;46.992;9.518;2023-11-19T03:05:38;5.27;97.36
71117;SHT31;58775;46.992;9.518;2023-11-19T03:07:42;5.20;97.88
71117;SHT31;58775;46.992;9.518;2023-11-19T03:09:44;5.24;98.02
71117;SHT31;58775;46.992;9.518;2023-11-19T03:11:44;5.32;97.48
71117;SHT31;58775;46.992;9.518;2023-11-19T03:13:45;5.26;97.63
71117;SHT31;58775;46.992;9.518;2023-11-19T03:15:47;5.20;98.56
71117;SHT31;58775;46.992;9.518;2023-11-19T03:17:48;5.30;97.80
71117;SHT31;58775;46.992;9.518;2023-11-19T03:19:50;5.20;96.76
71117;SHT31;58775;46.992;9.518;2023-11-19T03:21:51;5.16;96.81
71117;SHT31;58775;46.992;9.518;2023-11-19T03:23:52;5.24;97.10
71117;SHT31;58775;46.992;9.518;2023-11-19T03:25:53;5.27;95.91
71117;SHT31;58775;46.992;9.518;2023-11-19T03:27:56;5.27;95.73
71117;SHT31;58775;46.992;9.518;2023-11-19T03:29:56;5.30;95.77
71117;SHT31;58775;46.992;9.518;2023-11-19T03:31:57;5.34;95.68
71117;SHT31;58775;46.992;9.518;2023-11-19T03:33:58;5.39;95.97
71117;SHT31;58775;46.992;9.518;2023-11-19T03:35:59;5.42;96.56
71117;SHT31;58775;46.992;9.518;2023-11-19T03:38:00;5.40;95.90
71117;SHT31;58775;46.992;9.518;2023-11-19T03:40:01;5.54;95.76
71117;SHT31;58775;46.992;9.518;2023-11-19T03:42:02;5.44;96.26
71117;SHT31;58775;46.992;9.518;2023-11-19T03:44:04;5.22;96.25
71117;SHT31;58775;46.992;9.518;2023-11-19T03:46:15;5.19;96.69
71117;SHT31;58775;46.992;9.518;2023-11-19T03:48:16;5.34;96.18
71117;SHT31;58775;46.992;9.518;2023-11-19T03:50:17;5.23;96.26
71117;SHT31;58775;46.992;9.518;2023-11-19T03:52:20;5.23;96.54
71117;SHT31;58775;46.992;9.518;2023-11-19T03:54:21;5.39;95.78
71117;SHT31;58775;46.992;9.518;2023-11-19T03:56:23;5.24;97.40
71117;SHT31;58775;46.992;9.518;2023-11-19T03:58:24;5.20;97.45
71117;SHT31;58775;46.992;9.518;2023-11-19T04:00:25;5.29;97.49
71117;SHT31;58775;46.992;9.518;2023-11-19T04:02:26;5.20;97.64
71117;SHT31;58775;46.992;9.518;2023-11-19T04:04:29;5.27;96.94
71117;SHT31;58775;46.992;9.518;2023-11-19T04:06:30;5.39;96.53
71117;SHT31;58775;46.992;9.518;2023-11-19T04:08:31;5.32;97.13
71117;SHT31;58775;46.992;9.518;2023-11-19T04:10:32;5.29;97.64
71117;SHT31;58775;46.992;9.518;2023-11-19T04:12:33;5.27;97.66
71117;SHT31;58775;46.992;9.518;2023-11-19T04:14:33;5.34;97.35
71117;SHT31;58775;46.992;9.518;2023-11-19T04:16:34;5.50;96.49
71117;SHT31;58775;46.992;9.518;2023-11-19T04:18:35;5.61;95.25
71117;SHT31;58775;46.992;9.518;2023-11-19T04:20:36;5.58;95.76
71117;SHT31;58775;46.992;9.518;2023-11-19T04:22:37;5.63;95.24
71117;SHT31;58775;46.992;9.518;2023-11-19T04:24:37;5.70;95.11
71117;SHT31;58775;46.992;9.518;2023-11-19T04:26:41;5.94;93.95
71117;SHT31;58775;46.992;9.518;2023-11-19T04:28:42;5.83;94.31
71117;SHT31;58775;46.992;9.518;2023-11-19T04:30:43;5.85;94.80
71117;SHT31;58775;46.992;9.518;2023-11-19T04:32:44;5.85;94.90
71117;SHT31;58775;46.992;9.518;2023-11-19T04:34:45;5.88;95.23
71117;SHT31;58775;46.992;9.518;2023-11-19T04:36:46;5.90;95.65
71117;SHT31;58775;46.992;9.518;2023-11-19T04:38:47;5.90;94.74
71117;SHT31;58775;46.992;9.518;2023-11-19T04:40:47;5.91;94.66
71117;SHT31;58775;46.992;9.518;2023-11-19T04:42:48;5.94;94.59
71117;SHT31;58775;46.992;9.518;2023-11-19T04:44:49;5.93;94.30
71117;SHT31;58775;46.992;9.518;2023-11-19T04:46:50;5.84;95.00
71117;SHT31;58775;46.992;9.518;2023-11-19T04:48:51;5.81;95.81
71117;SHT31;58775;46.992;9.518;2023-11-19T04:50:52;5.90;95.31
71117;SHT31;58775;46.992;9.518;2023-11-19T04:52:53;5.99;94.87
71117;SHT31;58775;46.992;9.518;2023-11-19T04:54:54;6.08;94.34
71117;SHT31;58775;46.992;9.518;2023-11-19T04:56:55;5.99;94.72
71117;SHT31;58775;46.992;9.518;2023-11-19T04:58:55;5.99;95.26
71117;SHT31;58775;46.992;9.518;2023-11-19T05:00:56;5.78;96.47
71117;SHT31;58775;46.992;9.518;2023-11-19T05:02:58;5.73;96.89
71117;SHT31;58775;46.992;9.518;2023-11-19T05:04:59;5.74;96.81
71117;SHT31;58775;46.992;9.518;2023-11-19T05:06:59;5.78;97.18
71117;SHT31;58775;46.992;9.518;2023-11-19T05:09:00;5.94;96.58
71117;SHT31;58775;46.992;9.518;2023-11-19T05:11:01;5.98;95.93
71117;SHT31;58775;46.992;9.518;2023-11-19T05:13:02;5.90;96.67
71117;SHT31;58775;46.992;9.518;2023-11-19T05:15:03;5.85;96.84
71117;SHT31;58775;46.992;9.518;2023-11-19T05:17:04;5.91;96.77
71117;SHT31;58775;46.992;9.518;2023-11-19T05:19:05;5.94;96.69
71117;SHT31;58775;46.992;9.518;2023-11-19T05:21:06;5.88;96.35
71117;SHT31;58775;46.992;9.518;2023-11-19T05:23:10;5.78;97.08
71117;SHT31;58775;46.992;9.518;2023-11-19T05:25:11;5.73;97.96
71117;SHT31;58775;46.992;9.518;2023-11-19T05:27:12;5.74;98.13
71117;SHT31;58775;46.992;9.518;2023-11-19T05:29:14;5.75;98.07
71117;SHT31;58775;46.992;9.518;2023-11-19T05:31:16;5.77;97.81
71117;SHT31;58775;46.992;9.518;2023-11-19T05:33:17;5.81;97.80
71117;SHT31;58775;46.992;9.518;2023-11-19T05:35:18;5.88;97.78
71117;SHT31;58775;46.992;9.518;2023-11-19T05:37:19;5.90;97.38
71117;SHT31;58775;46.992;9.518;2023-11-19T05:39:20;5.93;97.53
71117;SHT31;58775;46.992;9.518;2023-11-19T05:41:21;5.95;97.34
71117;SHT31;58775;46.992;9.518;2023-11-19T05:43:22;5.97;96.91
71117;SHT31;58775;46.992;9.518;2023-11-19T05:45:22;5.93;97.39
71117;SHT31;58775;46.992;9.518;2023-11-19T05:47:23;5.93;97.08
71117;SHT31;58775;46.992;9.518;2023-11-19T05:49:24;5.97;97.32
71117;SHT31;58775;46.992;9.518;2023-11-19T05:51:25;5.87;97.16
71117;SHT31;58775;46.992;9.518;2023-11-19T05:53:26;5.78;97.81
71117;SHT31;58775;46.992;9.518;2023-11-19T05:55:26;5.77;98.18
71117;SHT31;58775;46.992;9.518;2023-11-19T05:57:28;5.85;98.33
71117;SHT31;58775;46.992;9.518;2023-11-19T05:59:29;5.87;98.00
71117;SHT31;58775;46.992;9.518;2023-11-19T06:01:30;5.85;98.13
71117;SHT31;58775;46.992;9.518;2023-11-19T06:03:32;5.91;98.59
71117;SHT31;58775;46.992;9.518;2023-11-19T06:05:33;6.02;98.04
71117;SHT31;58775;46.992;9.518;2023-11-19T06:07:33;6.01;96.49
71117;SHT31;58775;46.992;9.518;2023-11-19T06:09:35;5.91;97.09
71117;SHT31;58775;46.992;9.518;2023-11-19T06:11:36;5.85;97.40
71117;SHT31;58775;46.992;9.518;2023-11-19T06:13:37;5.85;97.75
71117;SHT31;58775;46.992;9.518;2023-11-19T06:15:38;6.05;96.98
71117;SHT31;58775;46.992;9.518;2023-11-19T06:17:39;6.05;96.35
71117;SHT31;58775;46.992;9.518;2023-11-19T06:19:39;5.93;96.34
71117;SHT31;58775;46.992;9.518;2023-11-19T06:21:40;5.91;96.69
71117;SHT31;58775;46.992;9.518;2023-11-19T06:23:42;5.85;97.93
71117;SHT31;58775;46.992;9.518;2023-11-19T06:25:43;5.91;98.03
71117;SHT31;58775;46.992;9.518;2023-11-19T06:27:44;5.93;97.68
71117;SHT31;58775;46.992;9.518;2023-11-19T06:29:44;5.88;97.58
71117;SHT31;58775;46.992;9.518;2023-11-19T06:31:45;5.77;98.42
71117;SHT31;58775;46.992;9.518;2023-11-19T06:33:49;5.77;98.74
71117;SHT31;58775;46.992;9.518;2023-11-19T06:35:50;5.74;98.93
71117;SHT31;58775;46.992;9.518;2023-11-19T06:37:50;5.63;99.58
71117;SHT31;58775;46.992;9.518;2023-11-19T06:39:51;5.57;99.84
71117;SHT31;58775;46.992;9.518;2023-11-19T06:41:52;5.64;99.02
71117;SHT31;58775;46.992;9.518;2023-11-19T06:43:53;5.58;98.86
71117;SHT31;58775;46.992;9.518;2023-11-19T06:45:54;5.57;98.88
71117;SHT31;58775;46.992;9.518;2023-11-19T06:47:55;5.68;98.19
71117;SHT31;58775;46.992;9.518;2023-11-19T06:49:56;5.68;98.78
71117;SHT31;58775;46.992;9.518;2023-11-19T06:51:56;5.87;97.42
71117;SHT31;58775;46.992;9.518;2023-11-19T06:53:57;5.83;98.06
71117;SHT31;58775;46.992;9.518;2023-11-19T06:55:58;5.98;97.70
71117;SHT31;58775;46.992;9.518;2023-11-19T06:58:00;6.04;96.83
71117;SHT31;58775;46.992;9.518;2023-11-19T07:00:04;5.97;96.69
71117;SHT31;58775;46.992;9.518;2023-11-19T07:02:06;5.94;97.52
71117;SHT31;58775;46.992;9.518;2023-11-19T07:04:07;5.98;97.68
71117;SHT31;58775;46.992;9.518;2023-11-19T07:06:10;5.99;97.85
71117;SHT31;58775;46.992;9.518;2023-11-19T07:08:13;5.91;97.88
71117;SHT31;58775;46.992;9.518;2023-11-19T07:10:14;5.95;97.70
71117;SHT31;58775;46.992;9.518;2023-11-19T07:12:16;5.84;97.83
71117;SHT31;58775;46.992;9.518;2023-11-19T07:14:16;5.88;98.03
71117;SHT31;58775;46.992;9.518;2023-11-19T07:16:17;5.90;97.55
71117;SHT31;58775;46.992;9.518;2023-11-19T07:18:18;5.87;97.79
71117;SHT31;58775;46.992;9.518;2023-11-19T07:20:19;5.70;98.33
71117;SHT31;58775;46.992;9.518;2023-11-19T07:22:19;5.63;99.43
71117;SHT31;58775;46.992;9.518;2023-11-19T07:24:20;5.61;99.53
71117;SHT31;58775;46.992;9.518;2023-11-19T07:26:22;5.73;99.45
71117;SHT31;58775;46.992;9.518;2023-11-19T07:28:23;5.73;99.01
71117;SHT31;58775;46.992;9.518;2023-11-19T07:30:25;5.63;98.92
71117;SHT31;58775;46.992;9.518;2023-11-19T07:32:26;5.64;99.71
71117;SHT31;58775;46.992;9.518;2023-11-19T07:34:27;5.63;99.94
71117;SHT31;58775;46.992;9.518;2023-11-19T07:36:27;5.55;99.46
71117;SHT31;58775;46.992;9.518;2023-11-19T07:38:28;5.60;99.99
71117;SHT31;58775;46.992;9.518;2023-11-19T07:40:29;5.68;99.99
71117;SHT31;58775;46.992;9.518;2023-11-19T07:42:30;5.71;99.99
71117;SHT31;58775;46.992;9.518;2023-11-19T07:44:32;5.65;99.99
71117;SHT31;58775;46.992;9.518;2023-11-19T07:46:32;5.67;99.99
71117;SHT31;58775;46.992;9.518;2023-11-19T07:48:33;5.77;99.99
71117;SHT31;58775;46.992;9.518;2023-11-19T07:50:35;5.87;99.99
71117;SHT31;58775;46.992;9.518;2023-11-19T07:52:37;5.93;99.99
71117;SHT31;58775;46.992;9.518;2023-11-19T07:54:37;5.95;99.99
71117;SHT31;58775;46.992;9.518;2023-11-19T07:56:39;5.93;99.99
71117;SHT31;58775;46.992;9.518;2023-11-19T07:58:39;5.99;99.99
71117;SHT31;58775;46.992;9.518;2023-11-19T08:00:40;5.97;99.99
71117;SHT31;58775;46.992;9.518;2023-11-19T08:02:41;5.98;99.99
71117;SHT31;58775;46.992;9.518;2023-11-19T08:04:43;6.04;99.99
71117;SHT31;58775;46.992;9.518;2023-11-19T08:06:46;5.99;99.99
71117;SHT31;58775;46.992;9.518;2023-11-19T08:08:47;6.16;99.99
71117;SHT31;58775;46.992;9.518;2023-11-19T08:10:48;6.16;99.14
71117;SHT31;58775;46.992;9.518;2023-11-19T08:12:49;6.14;99.99
71117;SHT31;58775;46.992;9.518;2023-11-19T08:14:50;6.19;99.99
71117;SHT31;58775;46.992;9.518;2023-11-19T08:16:51;6.21;99.99
71117;SHT31;58775;46.992;9.518;2023-11-19T08:18:52;6.12;99.99
71117;SHT31;58775;46.992;9.518;2023-11-19T08:20:52;6.15;99.99
71117;SHT31;58775;46.992;9.518;2023-11-19T08:22:54;6.15;99.99
71117;SHT31;58775;46.992;9.518;2023-11-19T08:24:54;6.18;99.99
71117;SHT31;58775;46.992;9.518;2023-11-19T08:26:55;6.14;99.99
71117;SHT31;58775;46.992;9.518;2023-11-19T08:28:56;6.16;99.99
71117;SHT31;58775;46.992;9.518;2023-11-19T08:30:58;6.09;99.99
71117;SHT31;58775;46.992;9.518;2023-11-19T08:32:59;6.14;99.99
71117;SHT31;58775;46.992;9.518;2023-11-19T08:35:03;6.22;99.99
71117;SHT31;58775;46.992;9.518;2023-11-19T08:37:04;6.22;99.99
71117;SHT31;58775;46.992;9.518;2023-11-19T08:39:05;6.16;99.99
71117;SHT31;58775;46.992;9.518;2023-11-19T08:41:06;6.26;99.99
71117;SHT31;58775;46.992;9.518;2023-11-19T08:43:06;6.39;99.99
71117;SHT31;58775;46.992;9.518;2023-11-19T08:45:08;6.49;99.99
71117;SHT31;58775;46.992;9.518;2023-11-19T08:47:12;6.65;99.99
71117;SHT31;58775;46.992;9.518;2023-11-19T08:49:13;6.62;99.99
71117;SHT31;58775;46.992;9.518;2023-11-19T08:51:14;6.66;99.99
71117;SHT31;58775;46.992;9.518;2023-11-19T08:53:15;6.69;99.99
71117;SHT31;58775;46.992;9.518;2023-11-19T08:55:15;6.73;99.99
71117;SHT31;58775;46.992;9.518;2023-11-19T08:57:17;6.80;99.96
71117;SHT31;58775;46.992;9.518;2023-11-19T08:59:17;6.75;99.99
71117;SHT31;58775;46.992;9.518;2023-11-19T09:01:19;6.76;99.99
71117;SHT31;58775;46.992;9.518;2023-11-19T09:03:20;6.83;99.99
71117;SHT31;58775;46.992;9.518;2023-11-19T09:05:21;6.77;99.99
71117;SHT31;58775;46.992;9.518;2023-11-19T09:07:22;6.97;99.99
71117;SHT31;58775;46.992;9.518;2023-11-19T09:09:22;7.01;99.99
71117;SHT31;58775;46.992;9.518;2023-11-19T09:11:23;6.98;99.92
71117;SHT31;58775;46.992;9.518;2023-11-19T09:13:24;6.90;99.63
71117;SHT31;58775;46.992;9.518;2023-11-19T09:15:25;6.86;99.43
71117;SHT31;58775;46.992;9.518;2023-11-19T09:17:25;6.83;99.48
71117;SHT31;58775;46.992;9.518;2023-11-19T09:19:26;6.79;99.91
71117;SHT31;58775;46.992;9.518;2023-11-19T09:21:27;6.83;99.98
71117;SHT31;58775;46.992;9.518;2023-11-19T09:23:30;6.86;99.99
71117;SHT31;58775;46.992;9.518;2023-11-19T09:25:33;7.01;99.58
71117;SHT31;58775;46.992;9.518;2023-11-19T09:27:34;7.24;99.12
71117;SHT31;58775;46.992;9.518;2023-11-19T09:29:35;7.38;97.54
71117;SHT31;58775;46.992;9.518;2023-11-19T09:31:40;7.45;97.35
71117;SHT31;58775;46.992;9.518;2023-11-19T09:33:40;7.51;97.24
71117;SHT31;58775;46.992;9.518;2023-11-19T09:35:41;7.59;96.50
71117;SHT31;58775;46.992;9.518;2023-11-19T09:37:43;7.62;96.49
71117;SHT31;58775;46.992;9.518;2023-11-19T09:39:44;7.65;96.71
71117;SHT31;58775;46.992;9.518;2023-11-19T09:41:45;7.83;96.85
71117;SHT31;58775;46.992;9.518;2023-11-19T09:43:46;7.66;96.73
71117;SHT31;58775;46.992;9.518;2023-11-19T09:45:48;7.78;97.05
71117;SHT31;58775;46.992;9.518;2023-11-19T09:47:51;8.06;95.86
71117;SHT31;58775;46.992;9.518;2023-11-19T09:49:53;8.14;96.20
71117;SHT31;58775;46.992;9.518;2023-11-19T09:51:54;8.14;96.05
71117;SHT31;58775;46.992;9.518;2023-11-19T09:53:55;8.11;96.45
71117;SHT31;58775;46.992;9.518;2023-11-19T09:55:56;8.13;96.51
71117;SHT31;58775;46.992;9.518;2023-11-19T09:57:58;8.17;95.56
71117;SHT31;58775;46.992;9.518;2023-11-19T10:00:01;7.94;97.65
71117;SHT31;58775;46.992;9.518;2023-11-19T10:02:05;7.99;97.72
71117;SHT31;58775;46.992;9.518;2023-11-19T10:04:07;7.89;97.90
71117;SHT31;58775;46.992;9.518;2023-11-19T10:06:10;8.06;97.66
71117;SHT31;58775;46.992;9.518;2023-11-19T10:08:11;8.20;97.02
71117;SHT31;58775;46.992;9.518;2023-11-19T10:10:12;8.27;96.46
71117;SHT31;58775;46.992;9.518;2023-11-19T10:12:18;8.31;96.20
71117;SHT31;58775;46.992;9.518;2023-11-19T10:14:22;8.50;95.11
71117;SHT31;58775;46.992;9.518;2023-11-19T10:16:28;8.38;94.43
71117;SHT31;58775;46.992;9.518;2023-11-19T10:18:30;8.29;96.61
71117;SHT31;58775;46.992;9.518;2023-11-19T10:20:38;8.04;97.74
71117;SHT31;58775;46.992;9.518;2023-11-19T10:22:41;7.96;98.04
71117;SHT31;58775;46.992;9.518;2023-11-19T10:24:42;8.14;98.63
71117;SHT31;58775;46.992;9.518;2023-11-19T10:26:43;8.33;97.56
71117;SHT31;58775;46.992;9.518;2023-11-19T10:28:45;8.50;96.17
71117;SHT31;58775;46.992;9.518;2023-11-19T10:30:48;8.45;96.71
71117;SHT31;58775;46.992;9.518;2023-11-19T10:33:06;8.31;97.57
71117;SHT31;58775;46.992;9.518;2023-11-19T10:35:07;8.20;98.03
71117;SHT31;58775;46.992;9.518;2023-11-19T10:37:08;8.21;98.85
71117;SHT31;58775;46.992;9.518;2023-11-19T10:39:08;8.10;98.49
71117;SHT31;58775;46.992;9.518;2023-11-19T10:41:10;8.14;98.64
71117;SHT31;58775;46.992;9.518;2023-11-19T10:43:10;8.11;99.05
71117;SHT31;58775;46.992;9.518;2023-11-19T10:45:23;8.06;99.44
71117;SHT31;58775;46.992;9.518;2023-11-19T10:47:24;8.04;99.60
71117;SHT31;58775;46.992;9.518;2023-11-19T10:49:26;8.07;99.51
71117;SHT31;58775;46.992;9.518;2023-11-19T10:51:29;8.06;98.98
71117;SHT31;58775;46.992;9.518;2023-11-19T10:53:30;8.09;99.00
71117;SHT31;58775;46.992;9.518;2023-11-19T10:55:32;8.07;99.01
71117;SHT31;58775;46.992;9.518;2023-11-19T10:57:36;8.13;99.75
71117;SHT31;58775;46.992;9.518;2023-11-19T10:59:38;8.24;99.17
71117;SHT31;58775;46.992;9.518;2023-11-19T11:01:44;8.44;98.32
71117;SHT31;58775;46.992;9.518;2023-11-19T11:03:45;8.58;97.32
71117;SHT31;58775;46.992;9.518;2023-11-19T11:05:47;8.52;97.40
71117;SHT31;58775;46.992;9.518;2023-11-19T11:07:49;8.60;97.58
71117;SHT31;58775;46.992;9.518;2023-11-19T11:09:51;8.68;96.82
71117;SHT31;58775;46.992;9.518;2023-11-19T11:11:52;8.71;95.90
71117;SHT31;58775;46.992;9.518;2023-11-19T11:13:56;8.76;96.48
71117;SHT31;58775;46.992;9.518;2023-11-19T11:15:58;8.68;96.48
71117;SHT31;58775;46.992;9.518;2023-11-19T11:18:02;8.51;97.46
71117;SHT31;58775;46.992;9.518;2023-11-19T11:20:04;8.50;97.62
71117;SHT31;58775;46.992;9.518;2023-11-19T11:22:06;8.36;97.76
71117;SHT31;58775;46.992;9.518;2023-11-19T11:27:02;8.11;99.01
71117;SHT31;58775;46.992;9.518;2023-11-19T11:29:11;8.40;97.90
71117;SHT31;58775;46.992;9.518;2023-11-19T11:34:17;8.62;97.81
71117;SHT31;58775;46.992;9.518;2023-11-19T11:36:22;8.54;97.68
71117;SHT31;58775;46.992;9.518;2023-11-19T11:38:23;8.60;98.34
71117;SHT31;58775;46.992;9.518;2023-11-19T11:40:24;8.65;96.72
71117;SHT31;58775;46.992;9.518;2023-11-19T11:45:06;8.88;97.65
71117;SHT31;58775;46.992;9.518;2023-11-19T11:47:10;9.01;96.84
71117;SHT31;58775;46.992;9.518;2023-11-19T11:49:11;8.99;96.28
71117;SHT31;58775;46.992;9.518;2023-11-19T11:51:13;8.96;96.99
71117;SHT31;58775;46.992;9.518;2023-11-19T11:53:15;9.11;96.99
71117;SHT31;58775;46.992;9.518;2023-11-19T11:55:16;9.23;96.56
71117;SHT31;58775;46.992;9.518;2023-11-19T11:57:17;9.36;95.83
71117;SHT31;58775;46.992;9.518;2023-11-19T11:59:19;9.43;95.29
71117;SHT31;58775;46.992;9.518;2023-11-19T12:01:19;9.40;95.72
71117;SHT31;58775;46.992;9.518;2023-11-19T12:03:21;9.29;96.69
71117;SHT31;58775;46.992;9.518;2023-11-19T12:05:23;9.33;95.72
71117;SHT31;58775;46.992;9.518;2023-11-19T12:07:24;9.32;95.63
71117;SHT31;58775;46.992;9.518;2023-11-19T12:09:26;9.33;95.74
71117;SHT31;58775;46.992;9.518;2023-11-19T12:11:28;9.26;96.83
71117;SHT31;58775;46.992;9.518;2023-11-19T12:13:53;9.19;96.31
71117;SHT31;58775;46.992;9.518;2023-11-19T12:17:57;9.32;96.25
71117;SHT31;58775;46.992;9.518;2023-11-19T12:20:10;9.42;95.85
71117;SHT31;58775;46.992;9.518;2023-11-19T12:22:11;9.47;95.68
71117;SHT31;58775;46.992;9.518;2023-11-19T12:24:13;9.53;95.49
71117;SHT31;58775;46.992;9.518;2023-11-19T12:26:40;9.37;96.71
71117;SHT31;58775;46.992;9.518;2023-11-19T12:28:57;9.50;96.13
71117;SHT31;58775;46.992;9.518;2023-11-19T12:31:10;9.58;95.89
71117;SHT31;58775;46.992;9.518;2023-11-19T12:33:11;9.40;96.40
71117;SHT31;58775;46.992;9.518;2023-11-19T12:35:12;9.27;95.72
71117;SHT31;58775;46.992;9.518;2023-11-19T12:37:14;9.34;96.11
71117;SHT31;58775;46.992;9.518;2023-11-19T12:39:15;9.32;96.26
71117;SHT31;58775;46.992;9.518;2023-11-19T12:41:16;9.20;97.37
71117;SHT31;58775;46.992;9.518;2023-11-19T12:43:21;9.20;97.77
71117;SHT31;58775;46.992;9.518;2023-11-19T12:45:33;9.32;96.55
71117;SHT31;58775;46.992;9.518;2023-11-19T12:47:34;9.46;96.50
71117;SHT31;58775;46.992;9.518;2023-11-19T12:49:35;9.53;96.27
71117;SHT31;58775;46.992;9.518;2023-11-19T12:51:36;9.43;95.39
71117;SHT31;58775;46.992;9.518;2023-11-19T12:53:53;9.34;96.41
71117;SHT31;58775;46.992;9.518;2023-11-19T12:56:07;9.40;97.31
71117;SHT31;58775;46.992;9.518;2023-11-19T12:58:08;9.34;97.32
71117;SHT31;58775;46.992;9.518;2023-11-19T13:00:19;9.23;97.39
71117;SHT31;58775;46.992;9.518;2023-11-19T13:04:50;9.36;98.28
71117;SHT31;58775;46.992;9.518;2023-11-19T13:06:51;9.27;97.05
71117;SHT31;58775;46.992;9.518;2023-11-19T13:08:52;9.36;97.99
71117;SHT31;58775;46.992;9.518;2023-11-19T13:10:55;9.20;97.93
71117;SHT31;58775;46.992;9.518;2023-11-19T13:13:03;9.23;98.43
71117;SHT31;58775;46.992;9.518;2023-11-19T13:15:05;9.33;98.10
71117;SHT31;58775;46.992;9.518;2023-11-19T13:17:06;9.42;98.17